Time;durP1;ratioP1;P1;durP2;ratioP2;P2;SDS_P1;SDS_P2;PMS_P1;PMS_P2;Temp;Humidity;BMP_temperature;BMP_pressure;BME280_temperature;BME280_humidity;BME280_pressure;Samples;Min_cycle;Max_cycle;Signal;HPM_P1;HPM_P2
2020/12/04 00:02:07;;;;;;;41.40;17.48;;;3.40;99.90;;;;;;5071618;28;20024;-83
2020/12/04 00:04:33;;;;;;;38.70;15.68;;;3.50;99.90;;;;;;5072323;28;20489;-83
2020/12/04 00:06:59;;;;;;;35.95;16.27;;;3.50;99.90;;;;;;5072499;28;20115;-83
2020/12/04 00:09:25;;;;;;;40.67;16.52;;;3.50;99.90;;;;;;5072539;28;20020;-84
2020/12/04 00:11:51;;;;;;;33.05;16.67;;;3.50;99.90;;;;;;5072677;28;20093;-84
2020/12/04 00:14:16;;;;;;;35.50;17.45;;;3.50;99.90;;;;;;5072522;28;20027;-83
2020/12/04 00:16:42;;;;;;;39.45;17.42;;;3.50;99.90;;;;;;5072370;28;20032;-83
2020/12/04 00:19:07;;;;;;;37.30;16.50;;;3.40;99.90;;;;;;5090623;28;20102;-83
2020/12/04 00:21:33;;;;;;;38.80;17.17;;;3.40;99.90;;;;;;5072041;28;20017;-83
2020/12/04 00:23:59;;;;;;;36.95;16.58;;;3.40;99.90;;;;;;5071751;28;20225;-83
2020/12/04 00:26:24;;;;;;;38.08;17.98;;;3.40;99.90;;;;;;5090900;28;20032;-83
2020/12/04 00:28:50;;;;;;;37.30;16.75;;;3.40;99.90;;;;;;5072153;28;20495;-82
2020/12/04 00:31:16;;;;;;;38.95;16.88;;;3.30;99.90;;;;;;5071686;28;20000;-83
2020/12/04 00:33:41;;;;;;;38.00;16.05;;;3.30;99.90;;;;;;5090308;28;20085;-83
2020/12/04 00:36:08;;;;;;;41.95;18.63;;;3.30;99.90;;;;;;5072386;28;20059;-83
2020/12/04 00:38:34;;;;;;;45.78;18.40;;;3.30;99.90;;;;;;5071367;28;20074;-83
2020/12/04 00:40:59;;;;;;;41.17;16.10;;;3.30;99.90;;;;;;5071582;28;20020;-83
2020/12/04 00:43:25;;;;;;;35.00;16.70;;;3.30;99.90;;;;;;5071392;28;20035;-83
2020/12/04 00:45:50;;;;;;;31.67;16.02;;;3.30;99.90;;;;;;5071725;28;20064;-83
2020/12/04 00:48:16;;;;;;;40.85;16.70;;;3.30;99.90;;;;;;5072109;28;20024;-83
2020/12/04 00:50:41;;;;;;;37.30;16.95;;;3.30;99.90;;;;;;5072704;28;20039;-83
2020/12/04 00:53:07;;;;;;;34.83;14.57;;;3.30;99.90;;;;;;5075284;28;20091;-83
2020/12/04 00:55:34;;;;;;;33.92;14.43;;;3.30;99.90;;;;;;5075791;28;20057;-83
2020/12/04 00:58:00;;;;;;;35.78;16.30;;;3.30;99.90;;;;;;5072379;28;20028;-83
2020/12/04 01:00:26;;;;;;;35.60;16.35;;;3.30;99.90;;;;;;5072056;28;20083;-83
2020/12/04 01:02:51;;;;;;;39.20;16.80;;;3.30;99.90;;;;;;5071904;28;20040;-83
2020/12/04 01:05:17;;;;;;;37.80;16.35;;;3.30;99.90;;;;;;5071997;28;20024;-83
2020/12/04 01:07:43;;;;;;;37.30;15.93;;;3.30;99.90;;;;;;5071920;28;20090;-83
2020/12/04 01:10:08;;;;;;;36.88;15.10;;;3.30;99.90;;;;;;5072166;28;20035;-83
2020/12/04 01:12:34;;;;;;;32.15;14.90;;;3.20;99.90;;;;;;5072043;28;20037;-83
2020/12/04 01:15:00;;;;;;;35.65;15.13;;;3.20;99.90;;;;;;5072554;28;20493;-83
2020/12/04 01:17:27;;;;;;;35.50;16.92;;;3.20;99.90;;;;;;5078796;28;20396;-83
2020/12/04 01:19:53;;;;;;;41.55;15.45;;;3.20;99.90;;;;;;5084028;28;20028;-83
2020/12/04 01:22:19;;;;;;;36.38;15.15;;;3.20;99.90;;;;;;5095876;28;20041;-83
2020/12/04 01:24:45;;;;;;;30.65;13.40;;;3.20;99.90;;;;;;5097544;28;20096;-84
2020/12/04 01:27:11;;;;;;;34.40;14.55;;;3.20;99.90;;;;;;5094329;28;20032;-83
2020/12/04 01:29:36;;;;;;;35.53;14.90;;;3.20;99.90;;;;;;5114812;28;20044;-83
2020/12/04 01:32:02;;;;;;;29.42;13.38;;;3.20;99.90;;;;;;5093371;28;20028;-83
2020/12/04 01:34:27;;;;;;;34.58;15.25;;;3.20;99.90;;;;;;5108394;28;20112;-83
2020/12/04 01:36:53;;;;;;;33.22;15.70;;;3.10;99.90;;;;;;5082772;28;20036;-83
2020/12/04 01:39:18;;;;;;;35.35;15.77;;;3.10;99.90;;;;;;5075381;28;20031;-83
2020/12/04 01:41:44;;;;;;;39.20;15.60;;;3.10;99.90;;;;;;5075608;28;20036;-83
2020/12/04 01:44:09;;;;;;;33.13;15.95;;;3.20;99.90;;;;;;5075680;28;20108;-83
2020/12/04 01:46:35;;;;;;;41.78;16.10;;;3.10;99.90;;;;;;5075559;28;20016;-83
2020/12/04 01:49:01;;;;;;;33.00;15.25;;;3.10;99.90;;;;;;5075030;28;20037;-82
2020/12/04 01:51:29;;;;;;;31.10;13.77;;;3.10;99.90;;;;;;5075021;28;20495;-83
2020/12/04 01:53:55;;;;;;;34.22;15.48;;;3.10;99.90;;;;;;5075667;28;20028;-84
2020/12/04 01:56:21;;;;;;;32.30;15.07;;;3.10;99.90;;;;;;5095243;28;20047;-83
2020/12/04 01:58:46;;;;;;;33.65;15.00;;;3.10;99.90;;;;;;5080465;28;20496;-83
2020/12/04 02:01:14;;;;;;;34.95;15.30;;;3.10;99.90;;;;;;5075165;28;20070;-83
2020/12/04 02:03:41;;;;;;;39.08;15.60;;;3.10;99.90;;;;;;5093988;28;20450;-83
2020/12/04 02:06:17;;;;;;;32.90;14.73;;;3.10;99.90;;;;;;5075482;28;20035;-83
2020/12/04 02:08:53;;;;;;;37.85;15.18;;;3.10;99.90;;;;;;5074992;28;20124;-83
2020/12/04 02:11:21;;;;;;;29.00;12.68;;;3.10;99.90;;;;;;5074912;28;20405;-83
2020/12/04 02:13:48;;;;;;;29.40;13.50;;;3.10;99.90;;;;;;5074859;28;20069;-83
2020/12/04 02:16:19;;;;;;;29.00;14.30;;;3.10;99.90;;;;;;5054592;28;20047;-82
2020/12/04 02:18:45;;;;;;;31.88;14.52;;;3.10;99.90;;;;;;5074763;28;20021;-83
2020/12/04 02:21:11;;;;;;;32.45;14.45;;;3.00;99.90;;;;;;5074348;28;20400;-83
2020/12/04 02:23:39;;;;;;;35.50;16.23;;;3.00;99.90;;;;;;5074333;28;20024;-83
2020/12/04 02:26:07;;;;;;;31.50;14.85;;;2.90;99.90;;;;;;5074753;28;20039;-82
2020/12/04 02:28:37;;;;;;;29.73;13.52;;;2.90;99.90;;;;;;5073658;28;20476;-82
2020/12/04 02:31:03;;;;;;;32.20;14.02;;;2.90;99.90;;;;;;5086790;28;20032;-82
2020/12/04 02:33:29;;;;;;;31.05;13.98;;;2.90;99.90;;;;;;5074394;28;20081;-83
2020/12/04 02:35:55;;;;;;;37.22;15.50;;;2.90;99.90;;;;;;5074444;28;20040;-83
2020/12/04 02:38:22;;;;;;;35.05;15.63;;;2.90;99.90;;;;;;5073875;28;20028;-82
2020/12/04 02:40:47;;;;;;;32.60;15.13;;;2.90;99.90;;;;;;5074016;28;20021;-83
2020/12/04 02:43:13;;;;;;;30.83;15.15;;;2.90;99.90;;;;;;5074606;28;20024;-83
2020/12/04 02:45:38;;;;;;;28.50;13.23;;;2.90;99.90;;;;;;5073804;28;20028;-83
2020/12/04 02:48:04;;;;;;;26.17;12.57;;;2.90;99.90;;;;;;5074092;28;20008;-83
2020/12/04 02:50:30;;;;;;;33.85;14.85;;;2.80;99.90;;;;;;5074248;28;20426;-82
2020/12/04 02:52:55;;;;;;;30.25;13.75;;;2.80;99.90;;;;;;5073809;28;20028;-82
2020/12/04 02:55:21;;;;;;;26.30;12.07;;;2.70;99.90;;;;;;5072789;28;20028;-83
2020/12/04 02:57:47;;;;;;;27.13;13.20;;;2.70;99.90;;;;;;5092493;28;20105;-82
2020/12/04 03:00:13;;;;;;;36.90;15.10;;;2.70;99.90;;;;;;5073742;28;20028;-82
2020/12/04 03:02:38;;;;;;;30.35;12.27;;;2.70;99.90;;;;;;5073730;28;20035;-83
2020/12/04 03:05:04;;;;;;;28.92;14.32;;;2.70;99.90;;;;;;5073467;28;20032;-82
2020/12/04 03:07:29;;;;;;;36.95;14.88;;;2.70;99.90;;;;;;5073397;28;20024;-83
2020/12/04 03:09:56;;;;;;;32.45;14.38;;;2.70;99.90;;;;;;5072880;28;20078;-83
2020/12/04 03:12:21;;;;;;;35.47;14.65;;;2.70;99.90;;;;;;5073756;28;20028;-83
2020/12/04 03:14:47;;;;;;;38.45;13.77;;;2.70;99.90;;;;;;5073699;28;20473;-82
2020/12/04 03:17:13;;;;;;;31.20;14.23;;;2.70;99.90;;;;;;5091511;28;20049;-82
2020/12/04 03:19:38;;;;;;;33.88;15.40;;;2.70;99.90;;;;;;5073602;28;20031;-82
2020/12/04 03:22:04;;;;;;;34.95;14.65;;;2.70;99.90;;;;;;5072848;28;20024;-82
2020/12/04 03:24:33;;;;;;;33.33;14.82;;;2.70;99.90;;;;;;5091180;28;20096;-83
2020/12/04 03:26:59;;;;;;;30.42;14.80;;;2.70;99.90;;;;;;5073205;28;20423;-83
2020/12/04 03:29:24;;;;;;;32.75;14.80;;;2.70;99.90;;;;;;5073164;28;20028;-83
2020/12/04 03:31:50;;;;;;;37.13;15.05;;;2.70;99.90;;;;;;5073346;28;20024;-82
2020/12/04 03:34:15;;;;;;;30.10;14.50;;;2.70;99.90;;;;;;5073314;28;20016;-83
2020/12/04 03:36:41;;;;;;;38.92;16.85;;;2.70;99.90;;;;;;5090408;28;20373;-83
2020/12/04 03:39:06;;;;;;;36.50;15.77;;;2.60;99.90;;;;;;5072591;28;20530;-83
2020/12/04 03:41:32;;;;;;;32.00;14.85;;;2.70;99.90;;;;;;5091035;28;20031;-82
2020/12/04 03:43:57;;;;;;;38.38;15.88;;;2.60;99.90;;;;;;5072908;28;20074;-82
2020/12/04 03:46:23;;;;;;;35.42;16.65;;;2.60;99.90;;;;;;5072868;28;20077;-83
2020/12/04 03:48:48;;;;;;;44.58;16.35;;;2.50;99.90;;;;;;5072461;28;20376;-83
2020/12/04 03:51:14;;;;;;;43.40;18.77;;;2.50;99.90;;;;;;5072569;28;20393;-83
2020/12/04 03:53:39;;;;;;;32.08;16.00;;;2.50;99.90;;;;;;5072806;28;20023;-83
2020/12/04 03:56:05;;;;;;;38.90;17.33;;;2.40;99.90;;;;;;5073631;28;20040;-83
2020/12/04 03:58:30;;;;;;;39.85;17.50;;;2.40;99.90;;;;;;5072560;28;20020;-83
2020/12/04 04:00:56;;;;;;;36.72;17.83;;;2.50;99.90;;;;;;5072036;28;20024;-83
2020/12/04 04:03:22;;;;;;;42.85;17.75;;;2.40;99.90;;;;;;5072471;28;20093;-83
2020/12/04 04:05:48;;;;;;;38.22;19.08;;;2.30;99.90;;;;;;5073292;28;20053;-84
2020/12/04 04:08:13;;;;;;;38.63;18.35;;;2.40;99.90;;;;;;5072856;28;20034;-83
2020/12/04 04:10:39;;;;;;;38.10;17.85;;;2.30;99.90;;;;;;5078598;28;20032;-83
2020/12/04 04:13:04;;;;;;;37.85;15.85;;;2.30;99.90;;;;;;5082693;28;20477;-83
2020/12/04 04:15:30;;;;;;;46.88;18.58;;;2.40;99.90;;;;;;5080050;28;20136;-83
2020/12/04 04:17:58;;;;;;;37.20;16.92;;;2.30;99.90;;;;;;5073487;28;20031;-84
2020/12/04 04:20:26;;;;;;;44.05;16.58;;;2.20;99.90;;;;;;5072841;28;20428;-83
2020/12/04 04:22:52;;;;;;;44.78;18.50;;;2.30;99.90;;;;;;5089815;28;20085;-83
2020/12/04 04:25:18;;;;;;;40.28;19.55;;;2.30;99.90;;;;;;5074898;28;20040;-83
2020/12/04 04:27:44;;;;;;;46.55;20.58;;;2.30;99.90;;;;;;5072748;28;20035;-83
2020/12/04 04:30:09;;;;;;;40.50;18.00;;;2.20;99.90;;;;;;5066933;28;20431;-83
2020/12/04 04:32:35;;;;;;;49.25;20.90;;;2.30;99.90;;;;;;5072532;28;20120;-83
2020/12/04 04:35:03;;;;;;;40.17;16.88;;;2.30;99.90;;;;;;5091098;28;20036;-83
2020/12/04 04:37:29;;;;;;;47.72;20.00;;;2.20;99.90;;;;;;5084072;28;20039;-83
2020/12/04 04:39:54;;;;;;;50.38;21.75;;;2.30;99.90;;;;;;5090612;28;20020;-83
2020/12/04 04:42:20;;;;;;;51.50;20.17;;;2.30;99.90;;;;;;5071877;28;20042;-83
2020/12/04 04:44:45;;;;;;;40.47;17.00;;;2.30;99.90;;;;;;5072299;28;20477;-83
2020/12/04 04:47:19;;;;;;;45.38;19.42;;;2.20;99.90;;;;;;5090363;28;20031;-83
2020/12/04 04:49:47;;;;;;;39.80;18.38;;;2.20;99.90;;;;;;5072039;28;20035;-83
2020/12/04 04:52:14;;;;;;;50.22;21.05;;;2.20;99.90;;;;;;5070932;28;20108;-83
2020/12/04 04:54:44;;;;;;;47.50;19.30;;;2.20;99.90;;;;;;5090128;28;20036;-84
2020/12/04 04:57:11;;;;;;;58.95;19.73;;;2.20;99.90;;;;;;5071999;28;20051;-83
2020/12/04 04:59:37;;;;;;;51.33;22.67;;;2.30;99.90;;;;;;5072103;28;20055;-83
2020/12/04 05:02:03;;;;;;;47.70;20.95;;;2.20;99.90;;;;;;5071156;28;20024;-83
2020/12/04 05:04:49;;;;;;;42.47;19.08;;;2.20;99.90;;;;;;5071787;28;20107;-83
2020/12/04 05:07:17;;;;;;;51.80;22.13;;;2.30;99.90;;;;;;5071763;28;20027;-84
2020/12/04 05:09:43;;;;;;;47.40;20.40;;;2.30;99.90;;;;;;5071728;28;20104;-83
2020/12/04 05:12:09;;;;;;;49.45;19.00;;;2.30;99.90;;;;;;5076206;28;20081;-83
2020/12/04 05:14:34;;;;;;;45.90;20.08;;;2.30;99.90;;;;;;5089607;28;20016;-83
2020/12/04 05:17:07;;;;;;;46.30;18.33;;;2.40;99.90;;;;;;5088714;28;20067;-83
2020/12/04 05:19:42;;;;;;;39.05;17.50;;;2.40;99.90;;;;;;5054545;28;20401;-84
2020/12/04 05:22:17;;;;;;;48.58;21.25;;;2.40;99.90;;;;;;5070610;28;20024;-84
2020/12/04 05:24:44;;;;;;;52.47;21.92;;;2.40;99.90;;;;;;5072863;28;20040;-85
2020/12/04 05:27:25;;;;;;;47.92;19.08;;;2.40;99.90;;;;;;5070717;28;20031;-85
2020/12/04 05:29:58;;;;;;;;;;;2.40;99.90;;;;;;5063887;28;20040;-85
2020/12/04 05:32:25;;;;;;;38.97;18.48;;;2.40;99.90;;;;;;5087437;28;19940;-86
2020/12/04 05:35:03;;;;;;;40.08;19.25;;;2.40;99.90;;;;;;5088582;28;20028;-85
2020/12/04 05:37:29;;;;;;;49.95;21.02;;;2.40;99.90;;;;;;5087796;28;20049;-85
2020/12/04 05:39:54;;;;;;;45.05;19.95;;;2.40;99.90;;;;;;5072336;28;20040;-86
2020/12/04 05:42:36;;;;;;;54.50;23.27;;;2.40;99.90;;;;;;5076233;28;20111;-84
2020/12/04 05:45:04;;;;;;;49.92;21.88;;;2.40;99.90;;;;;;5092698;28;20024;-84
2020/12/04 05:47:40;;;;;;;50.78;21.60;;;2.40;99.90;;;;;;5087891;28;20019;-84
2020/12/04 05:50:08;;;;;;;47.97;20.10;;;2.50;99.90;;;;;;5067212;28;20437;-84
2020/12/04 05:52:36;;;;;;;47.03;20.58;;;2.50;99.90;;;;;;5070694;28;20151;-84
2020/12/04 05:55:04;;;;;;;41.20;19.38;;;2.40;99.90;;;;;;5087062;28;20038;-84
2020/12/04 05:57:30;;;;;;;48.65;20.98;;;2.50;99.90;;;;;;5086143;28;20047;-84
2020/12/04 05:59:56;;;;;;;47.20;21.05;;;2.50;99.90;;;;;;5070039;28;20511;-84
2020/12/04 06:02:21;;;;;;;61.20;24.33;;;2.50;99.90;;;;;;5071263;28;20115;-84
2020/12/04 06:04:47;;;;;;;55.22;23.33;;;2.60;99.90;;;;;;5074656;28;20023;-84
2020/12/04 06:07:16;;;;;;;41.47;16.95;;;2.60;99.90;;;;;;5072326;28;20027;-84
2020/12/04 06:09:42;;;;;;;58.08;22.38;;;2.60;99.90;;;;;;5070612;28;20468;-84
2020/12/04 06:12:13;;;;;;;48.20;20.13;;;2.60;99.90;;;;;;5072367;28;20035;-84
2020/12/04 06:14:40;;;;;;;53.83;24.67;;;2.60;99.90;;;;;;5072543;28;20031;-84
2020/12/04 06:17:11;;;;;;;51.30;22.23;;;2.70;99.90;;;;;;5076172;28;20037;-84
2020/12/04 06:19:41;;;;;;;51.35;22.30;;;2.70;99.90;;;;;;5074597;28;20024;-83
2020/12/04 06:22:26;;;;;;;52.03;22.00;;;2.60;99.90;;;;;;5073787;28;20046;-84
2020/12/04 06:24:55;;;;;;;49.95;23.95;;;2.60;99.90;;;;;;5072757;28;20146;-85
2020/12/04 06:27:36;;;;;;;49.13;21.58;;;2.70;99.90;;;;;;5086413;28;20025;-84
2020/12/04 06:30:04;;;;;;;47.10;19.63;;;2.70;99.90;;;;;;5087498;28;20036;-83
2020/12/04 06:32:44;;;;;;;38.92;16.02;;;2.80;99.90;;;;;;5081647;28;20415;-84
2020/12/04 06:35:10;;;;;;;54.70;22.20;;;2.80;99.90;;;;;;5072829;28;20087;-85
2020/12/04 06:37:41;;;;;;;56.95;23.48;;;2.80;99.90;;;;;;5074784;28;20044;-84
2020/12/04 06:40:36;;;;;;;51.83;20.95;;;2.80;99.90;;;;;;5090204;28;20020;-85
2020/12/04 06:43:02;;;;;;;51.85;19.10;;;2.90;99.90;;;;;;5049101;28;20043;-85
2020/12/04 06:45:46;;;;;;;49.42;21.85;;;2.80;99.90;;;;;;5077573;28;20481;-84
2020/12/04 06:48:16;;;;;;;50.50;22.52;;;2.70;99.90;;;;;;5072264;28;20024;-84
2020/12/04 06:50:44;;;;;;;45.17;19.57;;;2.80;99.90;;;;;;5069291;28;20035;-83
2020/12/04 06:53:12;;;;;;;40.00;17.85;;;2.70;99.90;;;;;;5071705;28;20294;-84
2020/12/04 06:55:41;;;;;;;52.63;21.92;;;2.80;99.90;;;;;;5090138;28;20020;-85
2020/12/04 06:58:08;;;;;;;51.17;23.27;;;2.70;99.90;;;;;;5093099;28;20024;-84
2020/12/04 07:00:34;;;;;;;47.63;20.90;;;2.80;99.90;;;;;;5052247;28;20032;-84
2020/12/04 07:03:02;;;;;;;48.10;21.85;;;2.80;99.90;;;;;;5069412;28;20151;-85
2020/12/04 07:05:29;;;;;;;50.65;21.05;;;2.80;99.90;;;;;;5070971;28;20099;-84
2020/12/04 07:08:06;;;;;;;49.58;20.95;;;2.90;99.90;;;;;;5070951;28;20345;-84
2020/12/04 07:10:33;;;;;;;58.63;25.00;;;2.90;99.90;;;;;;5068160;28;20215;-84
2020/12/04 07:13:04;;;;;;;53.92;22.73;;;2.90;99.90;;;;;;5043528;28;20064;-84
2020/12/04 07:15:31;;;;;;;50.35;21.67;;;3.00;99.90;;;;;;5049668;28;20035;-83
2020/12/04 07:17:58;;;;;;;47.10;21.30;;;3.00;99.90;;;;;;5053701;28;20520;-85
2020/12/04 07:20:34;;;;;;;56.80;25.08;;;2.90;99.90;;;;;;5049366;28;20032;-84
2020/12/04 07:23:04;;;;;;;53.03;21.85;;;2.90;99.90;;;;;;5047509;28;20393;-84
2020/12/04 07:25:30;;;;;;;51.92;22.95;;;3.00;99.90;;;;;;5046276;28;20054;-84
2020/12/04 07:27:56;;;;;;;57.35;23.25;;;3.00;99.90;;;;;;5041332;28;20501;-83
2020/12/04 07:30:25;;;;;;;48.83;21.42;;;3.00;99.90;;;;;;5027835;28;20073;-84
2020/12/04 07:32:52;;;;;;;50.17;22.23;;;3.00;99.90;;;;;;5029327;28;20025;-84
2020/12/04 07:35:21;;;;;;;44.28;20.30;;;3.00;99.90;;;;;;5025820;28;20167;-84
2020/12/04 07:37:47;;;;;;;54.53;23.17;;;3.10;99.90;;;;;;5029735;28;20033;-84
2020/12/04 07:40:16;;;;;;;53.40;22.50;;;3.10;99.90;;;;;;5043994;28;20090;-84
2020/12/04 07:42:42;;;;;;;60.33;25.05;;;3.10;99.90;;;;;;5050741;28;20041;-84
2020/12/04 07:45:14;;;;;;;55.03;21.23;;;3.10;99.90;;;;;;5027947;28;20048;-84
2020/12/04 07:47:42;;;;;;;51.50;22.02;;;3.10;99.90;;;;;;5035283;28;20461;-84
2020/12/04 07:50:10;;;;;;;47.38;21.70;;;3.10;99.90;;;;;;5026963;28;20036;-84
2020/12/04 07:52:36;;;;;;;50.70;22.13;;;3.10;99.90;;;;;;5031922;28;20063;-84
2020/12/04 07:55:09;;;;;;;48.42;21.55;;;3.20;99.90;;;;;;5046665;28;20051;-85
2020/12/04 07:57:56;;;;;;;58.75;23.95;;;3.20;99.90;;;;;;5050228;28;20408;-84
2020/12/04 08:00:23;;;;;;;48.05;21.58;;;3.20;99.90;;;;;;5051361;28;20086;-84
2020/12/04 08:02:48;;;;;;;47.25;22.42;;;3.20;99.90;;;;;;5050424;28;20024;-85
2020/12/04 08:05:21;;;;;;;50.30;22.95;;;3.20;99.90;;;;;;5048225;28;20028;-84
2020/12/04 08:07:52;;;;;;;48.67;21.30;;;3.30;99.90;;;;;;5065908;28;20028;-84
2020/12/04 08:10:22;;;;;;;51.50;21.98;;;3.30;99.90;;;;;;5045692;28;20107;-85
2020/12/04 08:12:49;;;;;;;55.17;21.27;;;3.40;99.90;;;;;;5044482;28;20086;-83
2020/12/04 08:15:18;;;;;;;52.38;22.42;;;3.30;99.90;;;;;;5043301;28;20032;-83
2020/12/04 08:17:44;;;;;;;50.05;23.23;;;3.40;99.90;;;;;;5039593;28;20477;-84
2020/12/04 08:20:21;;;;;;;52.13;21.75;;;3.40;99.90;;;;;;5062177;28;20058;-84
2020/12/04 08:22:50;;;;;;;58.83;24.70;;;3.40;99.90;;;;;;5068363;28;20035;-85
2020/12/04 08:25:37;;;;;;;43.40;21.67;;;3.50;99.90;;;;;;5057378;28;21504;-85
2020/12/04 08:28:05;;;;;;;50.53;22.42;;;3.50;99.90;;;;;;5064169;28;20044;-84
2020/12/04 08:30:31;;;;;;;61.08;24.15;;;3.40;99.90;;;;;;5081527;28;20034;-84
2020/12/04 08:33:00;;;;;;;49.30;21.15;;;3.40;99.90;;;;;;5067088;28;20055;-85
2020/12/04 08:35:33;;;;;;;60.42;25.35;;;3.40;99.90;;;;;;5068086;28;20111;-84
2020/12/04 08:38:12;;;;;;;58.28;23.83;;;3.40;99.90;;;;;;5070012;28;20488;-85
2020/12/04 08:40:40;;;;;;;59.70;25.77;;;3.40;99.90;;;;;;5064604;28;20098;-85
2020/12/04 08:43:13;;;;;;;54.70;24.15;;;3.50;99.90;;;;;;5073777;28;20130;-85
2020/12/04 08:45:43;;;;;;;56.53;24.25;;;3.60;99.90;;;;;;5106729;28;20084;-84
2020/12/04 08:48:12;;;;;;;52.10;20.90;;;3.60;99.90;;;;;;5083724;28;20087;-85
2020/12/04 08:50:46;;;;;;;51.85;24.02;;;3.60;99.90;;;;;;5101268;28;20064;-84
2020/12/04 08:53:14;;;;;;;55.22;23.42;;;3.60;99.90;;;;;;5083114;28;20061;-84
2020/12/04 08:55:46;;;;;;;58.25;23.85;;;3.60;99.90;;;;;;5077768;28;20034;-83
2020/12/04 08:58:14;;;;;;;50.42;24.15;;;3.60;99.90;;;;;;5077576;28;20028;-84
2020/12/04 09:00:40;;;;;;;56.45;22.98;;;3.70;99.90;;;;;;5073969;28;20017;-84
2020/12/04 09:03:07;;;;;;;46.58;23.13;;;3.80;99.90;;;;;;5067401;28;20031;-84
2020/12/04 09:05:32;;;;;;;55.65;24.15;;;3.80;99.90;;;;;;5066845;28;20051;-84
2020/12/04 09:07:58;;;;;;;59.92;22.95;;;3.80;99.90;;;;;;5084775;28;20059;-84
2020/12/04 09:10:24;;;;;;;52.65;22.42;;;3.90;99.90;;;;;;5083261;28;20024;-84
2020/12/04 09:12:49;;;;;;;54.45;24.75;;;3.90;99.90;;;;;;5061578;28;20074;-84
2020/12/04 09:15:18;;;;;;;48.45;20.90;;;4.00;99.90;;;;;;5063964;28;20011;-84
2020/12/04 09:17:45;;;;;;;46.80;22.70;;;4.00;99.90;;;;;;5066430;28;20130;-85
2020/12/04 09:20:13;;;;;;;47.38;21.33;;;4.00;99.90;;;;;;5059388;28;20020;-85
2020/12/04 09:22:40;;;;;;;48.17;21.15;;;4.10;99.90;;;;;;5067832;28;20042;-85
2020/12/04 09:25:11;;;;;;;52.25;21.30;;;4.10;99.90;;;;;;5066327;28;20404;-86
2020/12/04 09:27:37;;;;;;;61.08;22.60;;;4.10;99.90;;;;;;5066997;28;20032;-85
2020/12/04 09:30:04;;;;;;;52.35;22.48;;;4.10;99.90;;;;;;5067445;28;20039;-85
2020/12/04 09:32:31;;;;;;;56.72;20.75;;;4.10;99.90;;;;;;5065791;28;20092;-84
2020/12/04 09:34:57;;;;;;;49.80;21.95;;;4.10;99.90;;;;;;5067913;28;20028;-84
2020/12/04 09:37:27;;;;;;;52.28;21.98;;;4.10;99.90;;;;;;5053333;28;20046;-85
2020/12/04 09:39:55;;;;;;;49.45;22.77;;;4.10;99.90;;;;;;5086851;28;20071;-84
2020/12/04 09:42:22;;;;;;;56.08;22.65;;;4.20;99.90;;;;;;5071342;28;20071;-84
2020/12/04 09:44:49;;;;;;;44.88;21.25;;;4.20;99.90;;;;;;5073820;28;20024;-84
2020/12/04 09:47:15;;;;;;;52.28;23.13;;;4.20;99.90;;;;;;5070218;28;20367;-85
2020/12/04 09:49:42;;;;;;;47.75;19.52;;;4.20;99.90;;;;;;5071139;28;20034;-86
2020/12/04 09:52:08;;;;;;;43.97;20.77;;;4.30;99.90;;;;;;5070747;28;20031;-86
2020/12/04 09:54:36;;;;;;;49.85;20.38;;;4.30;99.90;;;;;;5068750;28;20043;-86
2020/12/04 09:57:06;;;;;;;49.70;20.50;;;4.40;99.90;;;;;;5070259;28;20044;-85
2020/12/04 09:59:31;;;;;;;49.30;21.70;;;4.50;99.90;;;;;;5060790;28;20058;-85
2020/12/04 10:01:58;;;;;;;43.92;21.38;;;4.50;99.90;;;;;;5037559;28;20139;-86
2020/12/04 10:04:24;;;;;;;56.53;21.73;;;4.60;99.90;;;;;;5071621;28;20032;-84
2020/12/04 10:06:51;;;;;;;49.47;22.92;;;4.60;99.90;;;;;;5066895;28;20028;-84
2020/12/04 10:09:16;;;;;;;46.10;20.77;;;4.70;99.90;;;;;;5083727;28;20168;-85
2020/12/04 10:11:42;;;;;;;47.70;19.88;;;4.70;99.90;;;;;;5067563;28;20032;-83
2020/12/04 10:14:08;;;;;;;49.10;21.08;;;4.80;99.90;;;;;;5041546;28;20063;-85
2020/12/04 10:16:34;;;;;;;52.88;20.98;;;4.80;99.90;;;;;;5059464;28;20068;-84
2020/12/04 10:19:00;;;;;;;45.50;19.05;;;4.90;99.90;;;;;;5085505;28;20035;-84
2020/12/04 10:21:26;;;;;;;45.90;20.05;;;5.00;99.90;;;;;;5071502;28;20027;-84
2020/12/04 10:23:55;;;;;;;46.38;18.27;;;5.00;99.90;;;;;;5069099;28;20174;-85
2020/12/04 10:26:21;;;;;;;46.65;20.17;;;5.00;99.90;;;;;;5055383;28;20036;-84
2020/12/04 10:28:47;;;;;;;52.95;20.95;;;5.10;99.90;;;;;;5039283;28;20149;-84
2020/12/04 10:31:14;;;;;;;46.25;19.48;;;5.10;99.90;;;;;;5057223;28;20039;-85
2020/12/04 10:33:39;;;;;;;42.22;18.92;;;5.10;99.90;;;;;;5053510;28;20028;-85
2020/12/04 10:36:05;;;;;;;42.00;19.00;;;5.20;99.90;;;;;;5058659;28;20397;-85
2020/12/04 10:38:30;;;;;;;43.90;19.60;;;5.20;99.90;;;;;;5069636;28;20046;-85
2020/12/04 10:40:58;;;;;;;47.60;20.38;;;5.40;99.90;;;;;;5072026;28;20027;-85
2020/12/04 10:43:23;;;;;;;48.95;20.50;;;5.30;99.90;;;;;;5067623;28;20173;-85
2020/12/04 10:45:50;;;;;;;33.20;16.08;;;5.30;99.90;;;;;;5069382;28;20115;-83
2020/12/04 10:48:15;;;;;;;45.40;19.08;;;5.40;99.90;;;;;;5060385;28;20043;-84
2020/12/04 10:50:43;;;;;;;38.08;18.17;;;5.40;99.90;;;;;;5040304;28;20016;-85
2020/12/04 10:53:08;;;;;;;57.67;19.02;;;5.40;99.90;;;;;;5036849;28;20151;-84
2020/12/04 10:55:34;;;;;;;49.03;19.60;;;5.40;99.90;;;;;;5041630;28;20104;-85
2020/12/04 10:58:00;;;;;;;49.10;19.42;;;5.40;99.90;;;;;;5043116;28;20028;-85
2020/12/04 11:00:25;;;;;;;43.05;19.27;;;5.50;99.90;;;;;;5042390;28;20038;-85
2020/12/04 11:02:56;;;;;;;42.25;17.70;;;5.50;99.90;;;;;;5057215;28;20047;-84
2020/12/04 11:05:37;;;;;;;34.78;15.40;;;5.50;99.90;;;;;;5092254;28;20020;-85
2020/12/04 11:08:03;;;;;;;48.92;20.77;;;5.50;99.90;;;;;;5087796;28;20036;-86
2020/12/04 11:10:29;;;;;;;44.35;17.48;;;5.70;99.90;;;;;;5069893;28;20178;-85
2020/12/04 11:12:55;;;;;;;55.35;17.42;;;5.90;99.90;;;;;;5086444;28;20369;-85
2020/12/04 11:15:20;;;;;;;44.28;18.20;;;6.00;99.90;;;;;;5066741;28;20100;-84
2020/12/04 11:17:46;;;;;;;38.85;17.45;;;6.10;99.90;;;;;;5050539;28;20484;-85
2020/12/04 11:20:15;;;;;;;37.80;15.52;;;5.90;99.90;;;;;;5077536;28;20020;-85
2020/12/04 11:22:42;;;;;;;47.70;18.35;;;6.00;99.90;;;;;;5068124;28;20051;-85
2020/12/04 11:25:08;;;;;;;47.78;19.58;;;6.10;99.90;;;;;;5059433;28;20040;-84
2020/12/04 11:27:39;;;;;;;42.97;19.02;;;6.10;99.90;;;;;;5082971;28;20369;-86
2020/12/04 11:30:05;;;;;;;46.47;18.23;;;6.00;99.90;;;;;;5083993;28;20016;-85
2020/12/04 11:32:33;;;;;;;41.88;17.15;;;6.00;99.90;;;;;;5057556;28;20040;-84
2020/12/04 11:35:00;;;;;;;45.10;18.63;;;6.10;99.90;;;;;;5064369;28;20102;-84
2020/12/04 11:37:25;;;;;;;39.20;18.17;;;6.10;99.90;;;;;;5069248;28;20094;-84
2020/12/04 11:39:51;;;;;;;43.47;18.05;;;6.20;99.90;;;;;;5067727;28;20020;-85
2020/12/04 11:42:17;;;;;;;44.22;16.60;;;6.30;99.90;;;;;;5073623;28;20047;-83
2020/12/04 11:44:42;;;;;;;40.35;17.98;;;6.40;99.90;;;;;;5078817;28;20111;-84
2020/12/04 11:47:08;;;;;;;37.65;17.20;;;6.50;99.90;;;;;;5097700;28;20028;-84
2020/12/04 11:49:34;;;;;;;49.38;19.85;;;6.70;99.90;;;;;;5080163;28;20026;-85
2020/12/04 11:51:59;;;;;;;42.08;18.00;;;7.00;99.90;;;;;;5084616;28;20024;-85
2020/12/04 11:54:25;;;;;;;45.47;17.58;;;7.00;99.90;;;;;;5082972;28;20076;-85
2020/12/04 11:56:51;;;;;;;39.92;16.50;;;6.80;99.90;;;;;;5105405;28;20048;-86
2020/12/04 11:59:17;;;;;;;46.63;17.75;;;6.80;99.90;;;;;;5082707;28;20024;-85
2020/12/04 12:01:43;;;;;;;53.33;18.63;;;6.60;99.90;;;;;;5083250;28;20047;-84
2020/12/04 12:04:12;;;;;;;39.10;16.52;;;6.60;99.90;;;;;;5079329;28;20510;-85
2020/12/04 12:06:38;;;;;;;42.58;16.60;;;6.50;99.90;;;;;;5089819;28;20027;-85
2020/12/04 12:09:04;;;;;;;48.00;17.30;;;6.50;99.90;;;;;;5084272;28;20040;-85
2020/12/04 12:11:29;;;;;;;43.72;17.05;;;6.50;99.90;;;;;;5076951;28;20105;-84
2020/12/04 12:13:55;;;;;;;38.90;16.67;;;6.40;99.90;;;;;;5094171;28;20028;-85
2020/12/04 12:16:22;;;;;;;45.67;17.23;;;6.50;99.90;;;;;;5090660;28;20036;-84
2020/12/04 12:18:48;;;;;;;42.53;17.73;;;6.50;99.90;;;;;;5085387;28;20020;-84
2020/12/04 12:21:14;;;;;;;42.35;17.75;;;6.50;99.90;;;;;;5069321;28;20088;-85
2020/12/04 12:23:39;;;;;;;44.40;17.13;;;6.50;99.90;;;;;;5066638;28;20032;-85
2020/12/04 12:26:06;;;;;;;42.88;17.30;;;6.60;99.90;;;;;;5085352;28;20123;-86
2020/12/04 12:28:32;;;;;;;50.00;18.60;;;6.70;99.90;;;;;;5086345;28;20024;-86
2020/12/04 12:30:59;;;;;;;48.40;17.20;;;6.70;99.90;;;;;;5071058;28;20182;-84
2020/12/04 12:33:26;;;;;;;46.92;17.33;;;6.60;99.90;;;;;;5042344;28;20032;-84
2020/12/04 12:35:52;;;;;;;46.50;18.00;;;6.60;99.90;;;;;;5077204;28;20044;-85
2020/12/04 12:38:18;;;;;;;40.13;15.75;;;6.70;99.90;;;;;;5082916;28;20028;-85
2020/12/04 12:40:43;;;;;;;42.78;17.40;;;6.70;99.90;;;;;;5084517;28;20026;-85